Lorah, Iowa
Current Conditions -  °F | °C
As of 8:55 AM on Friday 19 Dec 2014 (Local Time) from KAIO Reporting Station
Haze Haze  
Wind Chill: 24°   Ceiling: 600
Heat Index: 30°   Visibility: 3mi
Dew Point: 30°   Wind: 6mph
Humidity: 100%   Direction: 170°S
Pressure: 30.23"   Gusts: NA
Location:  41.4037°N, 95.0217°W
Report Text: KAIO 191455Z AUTO 17005KT 3SM BR OVC006 M01/M01 A3023 RMK AO2
Loading
Personal Weather Stations






























Interactive Weather Map New forecast layout! Learn more

10-Day Weather Forecast

Advertisements
Track Severe Weather on mobile